createdAt,value
2019-01-19T00:01:40.510Z,-2.43
2019-01-19T00:07:59.040Z,-2.39
2019-01-19T00:14:14.121Z,-2.42
2019-01-19T00:20:47.846Z,-2.56
2019-01-19T00:27:17.887Z,-2.56
2019-01-19T00:33:41.701Z,-2.56
2019-01-19T00:40:28.657Z,-2.61
2019-01-19T00:46:52.507Z,-2.78
2019-01-19T00:53:10.821Z,-2.75
2019-01-19T00:59:21.748Z,-2.73
2019-01-19T01:05:31.048Z,-2.87
2019-01-19T01:11:42.992Z,-2.85
2019-01-19T01:17:51.764Z,-2.92
2019-01-19T01:24:21.966Z,-2.94
2019-01-19T01:30:50.935Z,-2.88
2019-01-19T01:37:00.190Z,-2.98
2019-01-19T01:43:31.347Z,-2.95
2019-01-19T01:49:58.383Z,-2.96
2019-01-19T01:56:03.401Z,-3.17
2019-01-19T02:02:27.106Z,-3.17
2019-01-19T02:08:42.125Z,-3.18
2019-01-19T02:15:10.662Z,-3.12
2019-01-19T02:21:25.354Z,-3.17
2019-01-19T02:27:56.945Z,-3.23
2019-01-19T02:34:17.923Z,-3.24
2019-01-19T02:40:30.011Z,-3.26
2019-01-19T02:47:00.347Z,-3.36
2019-01-19T02:53:20.925Z,-3.28
2019-01-19T02:59:30.186Z,-3.23
2019-01-19T03:05:45.712Z,-3.14
2019-01-19T03:12:28.171Z,-3.26
2019-01-19T03:18:46.145Z,-3.29
2019-01-19T03:25:17.716Z,-3.20
2019-01-19T03:31:35.910Z,-3.08
2019-01-19T03:38:12.056Z,-3.19
2019-01-19T03:44:35.875Z,-3.08
2019-01-19T03:50:59.969Z,-3.07
2019-01-19T03:57:26.988Z,-3.16
2019-01-19T04:04:07.847Z,-3.20
2019-01-19T04:10:34.605Z,-3.23
2019-01-19T04:16:49.667Z,-3.24
2019-01-19T04:22:54.621Z,-3.26
2019-01-19T04:29:01.452Z,-3.30
2019-01-19T04:35:07.372Z,-3.26
2019-01-19T04:41:12.000Z,-3.28
2019-01-19T04:47:16.614Z,-3.33
2019-01-19T04:53:21.202Z,-3.35
2019-01-19T04:59:25.752Z,-3.27
2019-01-19T05:05:30.289Z,-3.24
2019-01-19T05:11:35.590Z,-3.31
2019-01-19T05:17:40.300Z,-3.30
2019-01-19T05:23:44.959Z,-3.34
2019-01-19T05:29:49.512Z,-3.37
2019-01-19T05:35:54.081Z,-3.37
2019-01-19T05:41:58.847Z,-3.35
2019-01-19T05:48:03.560Z,-3.37
2019-01-19T05:54:08.153Z,-3.41
2019-01-19T06:00:21.188Z,-3.48
2019-01-19T06:06:26.144Z,-3.50
2019-01-19T06:12:30.942Z,-3.51
2019-01-19T06:18:36.735Z,-3.59
2019-01-19T06:24:41.508Z,-3.57
2019-01-19T06:30:46.187Z,-3.61
2019-01-19T06:36:55.097Z,-3.59
2019-01-19T06:42:57.172Z,-3.48
2019-01-19T06:49:01.864Z,-3.49
2019-01-19T06:55:11.335Z,-3.43
2019-01-19T07:01:15.970Z,-3.43
2019-01-19T07:07:21.928Z,-3.41
2019-01-19T07:13:26.651Z,-3.21
2019-01-19T07:19:31.267Z,-3.02
2019-01-19T07:25:35.891Z,-3.12
2019-01-19T07:31:40.583Z,-3.18
2019-01-19T07:37:45.233Z,-3.25
2019-01-19T07:43:49.852Z,-3.10
2019-01-19T07:49:56.247Z,-3.01
2019-01-19T07:56:00.922Z,-2.97
2019-01-19T08:02:05.661Z,-2.79
2019-01-19T08:08:11.777Z,-2.66
2019-01-19T08:14:16.434Z,-2.65
2019-01-19T08:20:21.230Z,-2.56
2019-01-19T08:26:25.778Z,-2.51
2019-01-19T08:32:30.422Z,-2.46
2019-01-19T08:38:35.204Z,-2.45
2019-01-19T08:44:39.917Z,-2.29
2019-01-19T08:50:44.578Z,-2.31
2019-01-19T08:56:49.165Z,-2.25
2019-01-19T09:02:54.999Z,-2.05
2019-01-19T09:08:59.608Z,-2.02
2019-01-19T09:15:06.371Z,-1.93
2019-01-19T09:21:11.095Z,-1.76
2019-01-19T09:27:17.110Z,-1.59
2019-01-19T09:33:21.730Z,-1.50
2019-01-19T09:39:26.328Z,-1.36
2019-01-19T09:45:32.566Z,-1.26
2019-01-19T09:51:37.267Z,-1.28
2019-01-19T09:57:42.077Z,-0.89
2019-01-19T10:03:46.734Z,-0.58
2019-01-19T10:09:51.456Z,-0.48
2019-01-19T10:15:56.100Z,-0.36
2019-01-19T10:22:00.976Z,-0.12
2019-01-19T10:28:06.259Z,-0.06
2019-01-19T10:34:12.433Z,0.11
2019-01-19T10:40:18.840Z,0.33
2019-01-19T10:46:23.416Z,0.48
2019-01-19T10:52:28.228Z,0.62
2019-01-19T10:58:34.050Z,0.75
2019-01-19T11:04:38.953Z,0.83
2019-01-19T11:10:43.839Z,0.99
2019-01-19T11:16:48.536Z,1.18
2019-01-19T11:22:53.421Z,1.30
2019-01-19T11:28:57.969Z,1.42
2019-01-19T11:35:02.587Z,1.58
2019-01-19T11:41:07.377Z,1.76
2019-01-19T11:47:12.082Z,1.80
2019-01-19T11:53:16.749Z,2.25
2019-01-19T11:59:21.301Z,2.41
2019-01-19T12:05:26.075Z,2.60
2019-01-19T12:11:32.719Z,2.62
2019-01-19T12:17:37.528Z,2.63
2019-01-19T12:23:42.357Z,2.80
2019-01-19T12:29:46.969Z,2.48
2019-01-19T12:35:51.557Z,2.82
2019-01-19T12:41:56.183Z,2.99
2019-01-19T12:48:00.899Z,3.35
2019-01-19T12:54:06.704Z,3.25
2019-01-19T13:00:24.553Z,3.59
2019-01-19T13:06:36.769Z,3.63
2019-01-19T13:12:41.614Z,3.90
2019-01-19T13:18:56.687Z,3.80
2019-01-19T13:25:24.658Z,3.65
2019-01-19T13:31:57.595Z,3.50
2019-01-19T13:38:24.490Z,3.38
2019-01-19T13:44:51.615Z,3.01
2019-01-19T13:51:21.777Z,2.82
2019-01-19T13:57:32.320Z,2.86
2019-01-19T14:03:44.441Z,2.89
2019-01-19T14:10:16.173Z,2.85
2019-01-19T14:17:11.841Z,2.69
2019-01-19T14:23:32.751Z,2.67
2019-01-19T14:29:56.071Z,2.59
2019-01-19T14:36:56.136Z,2.48
2019-01-19T14:43:35.245Z,2.28
2019-01-19T14:50:16.799Z,2.19
2019-01-19T14:56:50.869Z,1.78
2019-01-19T15:03:24.577Z,1.58
2019-01-19T15:09:36.281Z,1.46
2019-01-19T15:16:03.557Z,1.20
2019-01-19T15:22:49.841Z,0.93
2019-01-19T15:29:38.934Z,0.73
2019-01-19T15:35:56.968Z,0.47
2019-01-19T15:42:35.818Z,0.28
2019-01-19T15:48:59.480Z,0.08
2019-01-19T15:55:14.429Z,-0.10
2019-01-19T16:02:00.400Z,-0.18
2019-01-19T16:08:36.242Z,-0.45
2019-01-19T16:15:16.552Z,-0.46
2019-01-19T16:21:40.285Z,-0.60
2019-01-19T16:28:23.466Z,-0.68
2019-01-19T16:34:56.463Z,-0.71
2019-01-19T16:41:44.547Z,-0.77
2019-01-19T16:48:08.368Z,-0.75
2019-01-19T16:54:26.314Z,-0.76
2019-01-19T17:00:51.914Z,-0.72
2019-01-19T17:07:07.074Z,-0.77
2019-01-19T17:13:51.966Z,-0.66
2019-01-19T17:20:16.069Z,-0.91
2019-01-19T17:26:37.366Z,-0.99
2019-01-19T17:33:11.856Z,-1.08
2019-01-19T17:39:44.739Z,-1.22
2019-01-19T17:46:05.756Z,-1.17
2019-01-19T17:52:40.601Z,-1.25
2019-01-19T17:58:58.336Z,-1.29
2019-01-19T18:05:16.209Z,-1.20
2019-01-19T18:11:59.000Z,-1.24
2019-01-19T18:18:28.427Z,-1.34
2019-01-19T18:24:51.717Z,-1.36
2019-01-19T18:31:39.874Z,-1.37
2019-01-19T18:37:54.805Z,-1.35
2019-01-19T18:44:06.618Z,-1.38
2019-01-19T18:50:48.324Z,-1.38
2019-01-19T18:57:23.857Z,-1.48
2019-01-19T19:03:51.249Z,-1.59
2019-01-19T19:10:21.372Z,-1.80
2019-01-19T19:16:36.467Z,-1.82
2019-01-19T19:22:57.562Z,-1.85
2019-01-19T19:29:27.675Z,-2.02
2019-01-19T19:36:00.786Z,-2.06
2019-01-19T19:42:27.925Z,-2.21
2019-01-19T19:48:43.116Z,-2.24
2019-01-19T19:54:54.818Z,-2.33
2019-01-19T20:00:59.695Z,-2.45
2019-01-19T20:07:04.594Z,-2.50
2019-01-19T20:13:09.452Z,-2.56
2019-01-19T20:19:14.002Z,-2.55
2019-01-19T20:25:18.603Z,-2.52
2019-01-19T20:31:23.189Z,-2.52
2019-01-19T20:37:27.867Z,-2.60
2019-01-19T20:43:33.830Z,-2.64
2019-01-19T20:49:38.539Z,-2.71
2019-01-19T20:55:43.160Z,-2.73
2019-01-19T21:01:47.716Z,-2.65
2019-01-19T21:07:52.272Z,-2.74
2019-01-19T21:13:56.845Z,-2.78
2019-01-19T21:20:01.379Z,-2.79
2019-01-19T21:26:06.016Z,-2.80
2019-01-19T21:32:10.588Z,-2.94
2019-01-19T21:38:15.170Z,-2.79
2019-01-19T21:44:19.742Z,-2.95
2019-01-19T21:50:25.765Z,-2.93
2019-01-19T21:56:30.295Z,-3.02
2019-01-19T22:02:34.853Z,-3.14
2019-01-19T22:08:39.418Z,-3.26
2019-01-19T22:14:44.193Z,-3.38
2019-01-19T22:20:48.754Z,-3.45
2019-01-19T22:27:00.167Z,-3.49
2019-01-19T22:33:05.055Z,-3.56
2019-01-19T22:39:09.684Z,-3.57
2019-01-19T22:45:16.546Z,-3.70
2019-01-19T22:51:21.154Z,-3.61
2019-01-19T22:57:25.775Z,-3.55
2019-01-19T23:03:32.876Z,-3.67
2019-01-19T23:09:37.715Z,-3.66
2019-01-19T23:15:42.320Z,-3.67
2019-01-19T23:21:46.892Z,-3.79
2019-01-19T23:27:51.421Z,-3.87
2019-01-19T23:33:56.043Z,-3.68
2019-01-19T23:40:01.815Z,-3.79
2019-01-19T23:46:07.771Z,-3.91
2019-01-19T23:52:12.308Z,-3.91
2019-01-19T23:58:16.852Z,-4.11
